createdAt,value
2023-02-26T00:00:58.862Z,7.82
2023-02-26T00:04:05.767Z,3.90
2023-02-26T00:07:10.278Z,2.45
2023-02-26T00:10:16.521Z,8.38
2023-02-26T00:13:21.368Z,10.13
2023-02-26T00:16:36.261Z,8.13
2023-02-26T00:19:41.009Z,5.05
2023-02-26T00:22:45.833Z,4.40
2023-02-26T00:25:49.783Z,3.40
2023-02-26T00:28:55.178Z,4.30
2023-02-26T00:31:59.986Z,7.65
2023-02-26T00:35:12.812Z,2.95
2023-02-26T00:38:18.126Z,4.72
2023-02-26T00:41:23.032Z,3.78
2023-02-26T00:44:27.749Z,3.90
2023-02-26T00:48:07.453Z,2.97
2023-02-26T00:51:47.989Z,8.88
2023-02-26T00:54:52.283Z,6.40
2023-02-26T00:57:56.549Z,5.90
2023-02-26T01:01:01.196Z,4.82
2023-02-26T01:04:06.750Z,3.05
2023-02-26T01:07:11.733Z,4.60
2023-02-26T01:10:17.046Z,6.15
2023-02-26T01:13:22.112Z,8.63
2023-02-26T01:16:31.445Z,5.22
2023-02-26T01:19:55.482Z,2.58
2023-02-26T01:23:14.901Z,3.30
2023-02-26T01:26:28.179Z,4.97
2023-02-26T01:29:33.676Z,7.28
2023-02-26T01:33:11.135Z,6.55
2023-02-26T01:36:20.995Z,12.48
2023-02-26T01:39:48.857Z,5.80
2023-02-26T01:42:58.335Z,2.40
2023-02-26T01:46:16.347Z,7.80
2023-02-26T01:49:21.698Z,7.90
2023-02-26T01:52:35.097Z,3.22
2023-02-26T01:55:43.705Z,5.85
2023-02-26T01:58:49.970Z,7.40
2023-02-26T02:01:58.305Z,5.07
2023-02-26T02:05:12.291Z,4.63
2023-02-26T02:11:21.622Z,3.08
2023-02-26T02:15:09.183Z,4.93
2023-02-26T02:18:59.872Z,2.30
2023-02-26T02:22:44.359Z,1.90
2023-02-26T02:26:35.648Z,6.78
2023-02-26T02:30:14.475Z,1.60
2023-02-26T02:33:24.146Z,4.15
2023-02-26T02:36:49.497Z,5.07
2023-02-26T02:40:02.106Z,4.47
2023-02-26T02:43:22.754Z,4.17
2023-02-26T02:46:32.903Z,1.50
2023-02-26T02:49:47.207Z,1.30
2023-02-26T02:53:02.711Z,3.85
2023-02-26T02:56:16.820Z,3.20
2023-02-26T02:59:29.568Z,4.45
2023-02-26T03:03:21.136Z,8.13
2023-02-26T03:06:25.571Z,13.15
2023-02-26T03:09:29.817Z,4.78
2023-02-26T03:12:34.693Z,4.53
2023-02-26T03:16:06.070Z,6.65
2023-02-26T03:19:38.569Z,5.60
2023-02-26T03:23:22.816Z,5.20
2023-02-26T03:26:42.939Z,4.05
2023-02-26T03:30:19.777Z,6.13
2023-02-26T03:33:48.751Z,5.53
2023-02-26T03:37:34.654Z,4.82
2023-02-26T03:40:54.279Z,7.00
2023-02-26T03:44:16.061Z,5.53
2023-02-26T03:47:22.690Z,4.88
2023-02-26T03:50:42.112Z,4.35
2023-02-26T03:54:05.527Z,8.07
2023-02-26T03:57:09.848Z,7.40
2023-02-26T04:00:15.040Z,6.03
2023-02-26T04:03:41.091Z,9.82
2023-02-26T04:06:46.690Z,4.32
2023-02-26T04:09:52.769Z,6.47
2023-02-26T04:13:00.816Z,6.55
2023-02-26T04:16:05.413Z,3.10
2023-02-26T04:19:09.539Z,3.78
2023-02-26T04:22:13.966Z,7.30
2023-02-26T04:25:18.441Z,6.63
2023-02-26T04:28:22.986Z,5.93
2023-02-26T04:31:27.243Z,4.47
2023-02-26T04:34:31.382Z,3.80
2023-02-26T04:37:35.749Z,8.48
2023-02-26T04:40:40.151Z,4.22
2023-02-26T04:43:44.490Z,6.57
2023-02-26T04:46:48.729Z,6.30
2023-02-26T04:49:52.897Z,2.45
2023-02-26T04:52:57.230Z,3.60
2023-02-26T04:56:01.975Z,5.13
2023-02-26T04:59:06.819Z,3.45
2023-02-26T05:02:11.375Z,5.55
2023-02-26T05:05:15.850Z,7.20
2023-02-26T05:08:20.086Z,8.77
2023-02-26T05:11:24.355Z,4.55
2023-02-26T05:14:29.028Z,4.63
2023-02-26T05:17:35.344Z,11.18
2023-02-26T05:20:39.826Z,3.55
2023-02-26T05:23:44.165Z,7.13
2023-02-26T05:26:48.597Z,2.97
2023-02-26T05:29:52.900Z,6.07
2023-02-26T05:32:57.257Z,10.02
2023-02-26T05:36:01.731Z,5.00
2023-02-26T05:39:05.872Z,3.00
2023-02-26T05:42:10.062Z,15.18
2023-02-26T05:45:14.426Z,3.60
2023-02-26T05:48:19.014Z,14.13
2023-02-26T05:51:23.080Z,5.22
2023-02-26T05:54:27.627Z,7.10
2023-02-26T05:57:31.735Z,5.07
2023-02-26T06:00:36.691Z,4.88
2023-02-26T06:03:44.184Z,5.65
2023-02-26T06:06:48.792Z,2.33
2023-02-26T06:09:53.819Z,12.23
2023-02-26T06:12:58.251Z,4.22
2023-02-26T06:16:03.092Z,6.88
2023-02-26T06:19:08.060Z,5.55
2023-02-26T06:22:12.557Z,7.05
2023-02-26T06:25:18.526Z,5.40
2023-02-26T06:28:24.585Z,10.52
2023-02-26T06:31:29.006Z,3.00
2023-02-26T06:34:33.740Z,4.82
2023-02-26T06:37:37.916Z,3.03
2023-02-26T06:40:42.393Z,7.03
2023-02-26T06:43:46.919Z,6.63
2023-02-26T06:46:51.418Z,4.40
2023-02-26T06:49:55.462Z,2.35
2023-02-26T06:53:00.149Z,3.45
2023-02-26T06:56:05.395Z,4.45
2023-02-26T06:59:10.353Z,7.00
2023-02-26T07:02:19.415Z,5.22
2023-02-26T07:05:23.788Z,7.78
2023-02-26T07:08:28.572Z,7.90
2023-02-26T07:11:32.928Z,5.25
2023-02-26T07:14:37.301Z,5.97
2023-02-26T07:17:42.341Z,5.55
2023-02-26T07:20:50.502Z,4.30
2023-02-26T07:23:55.039Z,6.72
2023-02-26T07:26:59.520Z,9.45
2023-02-26T07:30:07.048Z,5.13
2023-02-26T07:33:13.620Z,3.42
2023-02-26T07:36:18.280Z,8.75
2023-02-26T07:39:23.039Z,6.22
2023-02-26T07:42:27.287Z,3.35
2023-02-26T07:45:31.779Z,6.13
2023-02-26T07:48:37.095Z,3.78
2023-02-26T07:51:45.768Z,7.30
2023-02-26T07:54:50.861Z,6.00
2023-02-26T07:57:54.870Z,7.13
2023-02-26T08:00:59.548Z,9.20
2023-02-26T08:04:04.850Z,6.25
2023-02-26T08:07:09.243Z,3.60
2023-02-26T08:10:13.766Z,6.60
2023-02-26T08:13:18.313Z,3.60
2023-02-26T08:16:22.973Z,4.82
2023-02-26T08:19:27.411Z,7.47
2023-02-26T08:22:31.870Z,7.07
2023-02-26T08:25:36.578Z,3.50
2023-02-26T08:28:41.227Z,8.23
2023-02-26T08:31:45.897Z,6.10
2023-02-26T08:34:50.336Z,4.95
2023-02-26T08:37:54.505Z,11.15
2023-02-26T08:40:59.609Z,4.38
2023-02-26T08:44:04.839Z,3.10
2023-02-26T08:47:09.908Z,7.47
2023-02-26T08:50:13.973Z,6.00
2023-02-26T08:53:18.408Z,6.07
2023-02-26T08:56:22.879Z,4.50
2023-02-26T08:59:27.572Z,4.82
2023-02-26T09:02:32.170Z,8.98
2023-02-26T09:05:36.633Z,7.40
2023-02-26T09:08:40.796Z,8.90
2023-02-26T09:11:45.441Z,6.03
2023-02-26T09:14:50.420Z,2.17
2023-02-26T09:17:54.843Z,6.40
2023-02-26T09:20:59.049Z,4.60
2023-02-26T09:24:03.400Z,4.40
2023-02-26T09:27:07.466Z,8.95
2023-02-26T09:30:13.083Z,4.97
2023-02-26T09:33:17.496Z,6.82
2023-02-26T09:36:22.024Z,5.63
2023-02-26T09:39:26.212Z,3.58
2023-02-26T09:43:06.139Z,3.47
2023-02-26T09:46:33.798Z,5.00
2023-02-26T09:50:27.113Z,5.65
2023-02-26T09:53:40.515Z,4.00
2023-02-26T09:56:45.638Z,8.77
2023-02-26T09:59:52.038Z,12.45
2023-02-26T10:03:15.028Z,4.68
2023-02-26T10:06:35.489Z,3.70
2023-02-26T10:10:28.129Z,17.20
2023-02-26T10:13:56.700Z,4.43
2023-02-26T10:17:28.719Z,21.63
2023-02-26T10:21:09.494Z,7.55
2023-02-26T10:24:32.170Z,5.68
2023-02-26T10:27:48.495Z,3.22
2023-02-26T10:31:04.992Z,6.55
2023-02-26T10:34:27.874Z,5.32
2023-02-26T10:38:02.904Z,2.53
2023-02-26T10:44:50.389Z,3.40
2023-02-26T10:48:21.119Z,4.07
2023-02-26T10:51:33.568Z,6.82
2023-02-26T10:55:10.562Z,5.68
2023-02-26T10:58:26.560Z,5.57
2023-02-26T11:01:31.893Z,2.95
2023-02-26T11:04:36.140Z,7.97
2023-02-26T11:07:41.670Z,6.55
2023-02-26T11:10:51.782Z,2.78
2023-02-26T11:13:57.413Z,5.35
2023-02-26T11:17:10.353Z,6.13
2023-02-26T11:20:40.921Z,7.72
2023-02-26T11:23:47.356Z,5.47
2023-02-26T11:26:54.679Z,4.75
2023-02-26T11:30:06.486Z,3.25
2023-02-26T11:33:21.418Z,2.30
2023-02-26T11:36:32.452Z,4.45
2023-02-26T11:39:39.489Z,2.90
2023-02-26T11:42:53.174Z,6.82
2023-02-26T11:46:03.163Z,3.83
2023-02-26T11:49:10.045Z,2.53
2023-02-26T11:52:41.067Z,5.35
2023-02-26T11:55:51.478Z,8.60
2023-02-26T11:59:05.516Z,2.78
2023-02-26T12:02:14.383Z,3.28
2023-02-26T12:05:18.895Z,3.95
2023-02-26T12:08:38.404Z,2.15
2023-02-26T12:12:12.401Z,3.42
2023-02-26T12:15:25.409Z,6.55
2023-02-26T12:18:41.512Z,4.85
2023-02-26T12:22:02.617Z,6.15
2023-02-26T12:25:27.120Z,3.70
2023-02-26T12:29:36.542Z,4.88
2023-02-26T12:33:01.376Z,5.72
2023-02-26T12:36:21.831Z,2.85
2023-02-26T12:40:08.347Z,11.93
2023-02-26T12:43:49.965Z,2.28
2023-02-26T12:47:30.251Z,4.43
2023-02-26T12:51:05.487Z,4.78
2023-02-26T12:54:46.496Z,3.58
2023-02-26T12:58:20.431Z,5.45
2023-02-26T13:02:01.967Z,3.10
2023-02-26T13:05:44.861Z,4.38
2023-02-26T13:09:25.137Z,2.00
2023-02-26T13:13:22.198Z,3.72
2023-02-26T13:16:54.076Z,3.50
2023-02-26T13:20:18.268Z,4.90
2023-02-26T13:23:27.768Z,7.07
2023-02-26T13:26:34.874Z,4.30
2023-02-26T13:29:55.026Z,2.42
2023-02-26T13:33:08.355Z,2.90
2023-02-26T13:36:14.553Z,2.10
2023-02-26T13:39:50.285Z,1.75
2023-02-26T13:43:06.586Z,3.00
2023-02-26T13:46:47.628Z,3.38
2023-02-26T13:50:29.941Z,1.63
2023-02-26T13:53:40.042Z,4.70
2023-02-26T13:57:09.447Z,2.97
2023-02-26T14:00:35.108Z,3.13
2023-02-26T14:03:51.867Z,3.72
2023-02-26T14:07:15.550Z,2.63
2023-02-26T14:11:02.476Z,2.13
2023-02-26T14:14:11.034Z,6.60
2023-02-26T14:17:15.255Z,2.22
2023-02-26T14:20:27.844Z,4.82
2023-02-26T14:23:37.656Z,3.75
2023-02-26T14:27:08.277Z,4.68
2023-02-26T14:30:28.965Z,3.22
2023-02-26T14:33:46.459Z,1.70
2023-02-26T14:36:59.640Z,2.20
2023-02-26T14:40:18.251Z,6.13
2023-02-26T14:43:43.488Z,3.40
2023-02-26T14:46:51.322Z,4.85
2023-02-26T14:50:00.353Z,2.92
2023-02-26T14:53:50.516Z,1.67
2023-02-26T14:57:28.816Z,1.88
2023-02-26T15:01:19.534Z,2.95
2023-02-26T15:04:47.255Z,4.50
2023-02-26T15:07:57.512Z,5.95
2023-02-26T15:11:23.696Z,1.88
2023-02-26T15:15:02.070Z,5.43
2023-02-26T15:19:04.874Z,3.08
2023-02-26T15:22:18.197Z,4.85
2023-02-26T15:25:34.535Z,14.90
2023-02-26T15:28:42.567Z,3.33
2023-02-26T15:32:16.021Z,4.70
2023-02-26T15:35:22.625Z,4.75
2023-02-26T15:38:27.389Z,9.63
2023-02-26T15:41:33.910Z,3.47
2023-02-26T15:44:42.763Z,8.57
2023-02-26T15:48:00.617Z,3.88
2023-02-26T15:51:10.274Z,4.20
2023-02-26T15:54:22.201Z,4.35
2023-02-26T15:57:28.460Z,6.22
2023-02-26T16:00:37.094Z,3.50
2023-02-26T16:03:41.491Z,6.32
2023-02-26T16:06:58.258Z,30.92
2023-02-26T16:10:17.574Z,102.80
2023-02-26T16:13:37.713Z,328.50
2023-02-26T16:16:50.244Z,229.02
2023-02-26T16:19:57.765Z,53.60
2023-02-26T16:23:22.377Z,37.13
2023-02-26T16:29:56.022Z,10.85
2023-02-26T16:36:15.970Z,4.25
2023-02-26T16:39:31.244Z,22.27
2023-02-26T16:43:33.433Z,14.52
2023-02-26T16:46:44.962Z,5.25
2023-02-26T16:49:49.690Z,6.03
2023-02-26T16:53:15.385Z,11.90
2023-02-26T16:56:25.860Z,6.32
2023-02-26T16:59:38.443Z,13.32
2023-02-26T17:02:45.149Z,8.77
2023-02-26T17:06:06.322Z,3.72
2023-02-26T17:09:39.839Z,3.92
2023-02-26T17:12:52.105Z,3.53
2023-02-26T17:16:04.027Z,11.68
2023-02-26T17:19:09.532Z,5.57
2023-02-26T17:22:19.354Z,6.97
2023-02-26T17:25:25.321Z,6.28
2023-02-26T17:28:39.810Z,3.20
2023-02-26T17:31:45.900Z,3.30
2023-02-26T17:34:51.808Z,4.57
2023-02-26T17:37:57.402Z,3.80
2023-02-26T17:41:07.737Z,8.43
2023-02-26T17:44:12.306Z,6.10
2023-02-26T17:47:26.372Z,2.05
2023-02-26T17:53:58.879Z,5.95
2023-02-26T17:57:03.220Z,9.20
2023-02-26T18:00:08.993Z,5.68
2023-02-26T18:03:13.144Z,5.13
2023-02-26T18:06:17.918Z,4.10
2023-02-26T18:09:22.240Z,12.18
2023-02-26T18:12:26.481Z,4.53
2023-02-26T18:15:31.181Z,5.50
2023-02-26T18:18:35.400Z,6.75
2023-02-26T18:21:40.276Z,5.22
2023-02-26T18:24:46.029Z,9.50
2023-02-26T18:27:54.729Z,4.35
2023-02-26T18:30:59.883Z,4.97
2023-02-26T18:34:04.589Z,10.07
2023-02-26T18:37:15.558Z,6.05
2023-02-26T18:40:26.802Z,8.10
2023-02-26T18:43:31.280Z,6.53
2023-02-26T18:46:40.096Z,7.25
2023-02-26T18:49:44.577Z,8.13
2023-02-26T18:52:48.907Z,15.95
2023-02-26T18:55:55.008Z,7.88
2023-02-26T18:58:59.080Z,15.15
2023-02-26T19:02:05.340Z,19.75
2023-02-26T19:05:11.276Z,9.77
2023-02-26T19:08:15.836Z,8.30
2023-02-26T19:11:20.433Z,13.88
2023-02-26T19:14:24.966Z,12.55
2023-02-26T19:17:29.352Z,9.73
2023-02-26T19:20:33.770Z,7.13
2023-02-26T19:23:38.081Z,4.40
2023-02-26T19:26:43.532Z,9.23
2023-02-26T19:29:47.708Z,6.50
2023-02-26T19:32:53.154Z,3.33
2023-02-26T19:35:58.158Z,4.45
2023-02-26T19:39:05.119Z,7.78
2023-02-26T19:42:09.554Z,6.57
2023-02-26T19:45:17.581Z,3.92
2023-02-26T19:48:23.442Z,5.63
2023-02-26T19:51:28.105Z,8.27
2023-02-26T19:54:32.662Z,4.63
2023-02-26T19:57:37.253Z,12.35
2023-02-26T20:00:41.665Z,6.72
2023-02-26T20:03:49.017Z,7.18
2023-02-26T20:06:53.546Z,7.05
2023-02-26T20:09:57.990Z,4.22
2023-02-26T20:13:05.871Z,2.53
2023-02-26T20:16:11.582Z,4.25
2023-02-26T20:19:16.938Z,9.70
2023-02-26T20:22:22.898Z,3.70
2023-02-26T20:25:29.274Z,4.22
2023-02-26T20:28:33.773Z,5.18
2023-02-26T20:31:38.220Z,6.43
2023-02-26T20:34:42.932Z,7.03
2023-02-26T20:37:47.348Z,5.45
2023-02-26T20:40:51.618Z,7.32
2023-02-26T20:43:57.691Z,7.40
2023-02-26T20:47:03.834Z,6.32
2023-02-26T20:50:09.642Z,6.65
2023-02-26T20:53:14.082Z,5.60
2023-02-26T20:56:18.408Z,4.03
2023-02-26T20:59:22.599Z,5.05
2023-02-26T21:02:26.936Z,7.25
2023-02-26T21:05:31.607Z,9.60
2023-02-26T21:08:35.972Z,9.95
2023-02-26T21:11:40.606Z,7.40
2023-02-26T21:14:45.177Z,12.70
2023-02-26T21:17:49.484Z,6.13
2023-02-26T21:20:53.731Z,6.18
2023-02-26T21:23:57.918Z,15.20
2023-02-26T21:27:02.280Z,3.67
2023-02-26T21:30:13.793Z,7.53
2023-02-26T21:33:18.857Z,3.63
2023-02-26T21:36:23.200Z,3.67
2023-02-26T21:39:27.542Z,6.85
2023-02-26T21:42:32.268Z,7.47
2023-02-26T21:45:38.063Z,9.32
2023-02-26T21:48:42.449Z,8.40
2023-02-26T21:51:47.441Z,6.80
2023-02-26T21:54:51.523Z,7.43
2023-02-26T21:57:55.893Z,11.35
2023-02-26T22:01:00.423Z,4.95
2023-02-26T22:04:05.172Z,10.38
2023-02-26T22:07:09.752Z,6.60
2023-02-26T22:10:14.007Z,9.30
2023-02-26T22:13:18.171Z,9.00
2023-02-26T22:16:23.025Z,4.15
2023-02-26T22:19:27.429Z,4.68
2023-02-26T22:22:31.873Z,5.68
2023-02-26T22:25:36.400Z,9.57
2023-02-26T22:28:40.754Z,6.38
2023-02-26T22:31:44.847Z,15.57
2023-02-26T22:34:49.544Z,8.50
2023-02-26T22:37:54.108Z,8.60
2023-02-26T22:40:58.130Z,13.63
2023-02-26T22:44:02.227Z,17.42
2023-02-26T22:47:07.403Z,17.70
2023-02-26T22:50:13.396Z,21.67
2023-02-26T22:53:18.038Z,25.58
2023-02-26T22:56:22.761Z,18.63
2023-02-26T22:59:26.736Z,13.45
2023-02-26T23:02:31.157Z,11.88
2023-02-26T23:05:35.321Z,8.88
2023-02-26T23:08:40.184Z,10.40
2023-02-26T23:11:44.834Z,9.40
2023-02-26T23:14:49.143Z,11.70
2023-02-26T23:17:53.152Z,8.93
2023-02-26T23:20:57.486Z,12.20
2023-02-26T23:24:01.743Z,6.60
2023-02-26T23:27:06.223Z,8.30
2023-02-26T23:30:11.666Z,7.45
2023-02-26T23:33:16.056Z,6.45
2023-02-26T23:36:21.222Z,6.68
2023-02-26T23:39:28.422Z,9.43
2023-02-26T23:42:33.326Z,8.50
2023-02-26T23:45:37.719Z,7.85
2023-02-26T23:48:42.040Z,9.55
2023-02-26T23:51:46.709Z,7.50
2023-02-26T23:54:52.009Z,5.78
2023-02-26T23:57:56.416Z,6.03
